Alinda, Pennsylvania
Current Conditions -  °F | °C
As of 10:56 AM on Saturday 25 Oct 2014 (Local Time) from KCXY Reporting Station
Clear Clear  
Wind Chill: 62°   Ceiling: Unl
Heat Index: 62°   Visibility: 10mi
Dew Point: 43°   Wind: 8mph
Humidity: 50%   Direction: 290°WNW
Pressure: 29.9"   Gusts: NA
Location:  40.3086°N, 77.3363°W
Report Text: KCXY 251456Z 29007KT 10SM CLR 17/06 A2990 RMK AO2 SLP125 T01670061 58012
Loading
Personal Weather Stations






























Interactive Weather Map
Tropical Storm Tracking
New forecast layout! Learn more

10-Day Weather Forecast

Advertisements
Track Severe Weather on mobile